Detalii statie AGRALMIXT [00001CED]

Toti senzorii

Date Temperatura solului [C]Precipitatii [mm]Voltaj baterie [mV]Leaf Wetness [Min]HC Air temperature [C]HC Relative humidity [%]Punctul de roua [C]
medieminmaxsumaultimatimpmedieminmaxmediemediemin
2019-04-19 19:00:00 1.4 6748 8.37 7.57 9.96 94.98 7.4 6.8
2019-04-19 20:00:00 0 6678 6.85 6.54 7.25 98.19 6.4 6.2
2019-04-19 21:00:00 0 6660 6.66 6.21 6.9 99.21 6.4 5.9
2019-04-19 22:00:00 0 6660 6.39 6.12 6.73 99.79 6.3 5.9
2019-04-19 23:00:00 0 6660 5.5 4.95 5.99 100 5.4 4.9
2019-04-20 00:00:00 0 6650 5.2 4.22 5.94 100 5.1 4.2
2019-04-20 01:00:00 0 6640 3.97 3.71 4.27 100 3.9 3.7
2019-04-20 02:00:00 0 6640 3.35 2.6 4.07 100 3.3 2.6
2019-04-20 03:00:00 0 6630 2.69 2.06 3.2 100 2.6 2
2019-04-20 04:00:00 0 6640 2.37 1.95 2.96 100 2.3 1.9
2019-04-20 05:00:00 0 6630 1.74 1.27 2.22 100 1.7 1.2
2019-04-20 06:00:00 0 6738 1.05 0.3 1.91 100 1 0.3
2019-04-20 07:00:00 0.2 7352 3.89 2.14 5.84 100 3.8 2.1
2019-04-20 08:00:00 0 7352 6.95 5.94 8.35 100 6.9 5.9
2019-04-20 09:00:00 0 7352 9.69 8.57 10.98 94.55 8.7 8
2019-04-20 10:00:00 0 7342 12.25 11.18 13.65 75.15 7.6 5
2019-04-20 11:00:00 0 7342 14.38 13.7 15.44 50.09 3.9 2.4
2019-04-20 12:00:00 0 7246 13.79 12.75 15.67 42.9 1.2 -0.8
2019-04-20 13:00:00 0 7342 14.92 12.97 16.91 36.85 0 -2.3
2019-04-20 14:00:00 0 7264 15.58 14.35 17.45 32.99 -0.9 -2.9
2019-04-20 15:00:00 0 7236 15.52 14.41 17.05 31.97 -1.2 -2.7
2019-04-20 16:00:00 0 7158 15.31 14.44 17.31 31.54 -1.7 -3.8
2019-04-20 17:00:00 0 7314 14.91 13.77 16.45 32.85 -1.4 -3.3
2019-04-20 18:00:00 0 7314 14.78 14.01 16.19 32.33 -1.7 -3.4
2019-04-20 19:00:00 0 6786 12.66 12.09 13.67 35 -2.5 -3.5
2019-04-20 20:00:00 0 6708 10.08 8.53 11.97 43.37 -2 -3.3
2019-04-20 21:00:00 0 6668 7.92 6.62 8.69 53.79 -0.8 -1.4
2019-04-20 22:00:00 0 6660 5.31 4.07 6.38 70.29 0.2 -0.2
2019-04-20 23:00:00 0 6660 3.4 2.97 3.74 86.26 1.2 0.2
2019-04-21 00:00:00 0 6650 3.27 2.79 3.97 89.45 1.5 1.2
2019-04-21 01:00:00 0 6640 4.99 3.78 5.66 76.57 1 0
2019-04-21 02:00:00 0 6640 3.45 2.2 5.18 80.36 0.2 -0.1
2019-04-21 03:00:00 0 6630 1.79 1.41 2.2 92.08 0.5 -0.1
2019-04-21 04:00:00 0 6630 1.79 1.11 3.7 96.21 1.1 0.5
2019-04-21 05:00:00 0 6630 2.71 1.68 3.38 92.16 1.4 0.4
2019-04-21 06:00:00 0 6728 3 2.17 4.47 91.21 1.5 0.7
2019-04-21 07:00:00 0 7206 6.16 5.06 7.24 81.33 3 2.8
2019-04-21 08:00:00 0 7352 8.98 7.5 10.91 72.29 4 3.7
2019-04-21 09:00:00 0 7342 11.63 10.96 12.07 58.03 3.5 3
2019-04-21 10:00:00 0 7342 13.67 12.21 15.28 51.71 3.7 3.3
2019-04-21 11:00:00 0 7342 16.33 15.42 17.05 38.73 1.9 0.5
2019-04-21 12:00:00 0 7342 17.11 15.66 18.56 35.86 1.6 0.2
2019-04-21 13:00:00 0 7332 18.33 17.91 19.04 31.21 0.6 -0.1
2019-04-21 14:00:00 0 7332 18.76 18.4 19.09 29.88 0.5 -0.6
2019-04-21 15:00:00 0 7324 18.96 17.83 19.61 28.42 0 -0.9
2019-04-21 16:00:00 0 7176 17.57 16.99 18.99 31.24 0.1 -0.7
2019-04-21 17:00:00 0 7314 16.88 16.28 17.51 32.62 0.1 -0.2
2019-04-21 18:00:00 0 6816 15.41 14.89 16.05 37.07 0.6 -0.1